This is the latest recevied weather packets stored in our database for station/object KC9GSD. If no packets are shown the sender has not sent any weather packets the latest 10 day(s).
| Time | Temp. | Humidity | Pressure | Rain* | Wind** | Luminosity | Snow |
|---|---|---|---|---|---|---|---|
| 1778275462 | 18.33° C | 66% | 1013.9 hPa | 0 mm | - | 171 W/m² | - |
| 1778275158 | 18.89° C | 64% | 1013.7 hPa | 0 mm | - | 185 W/m² | - |
| 1778274854 | 18.89° C | 60% | 1013.8 hPa | 0 mm | - | 196 W/m² | - |
| 1778274551 | 19.44° C | 60% | 1013.7 hPa | 0 mm | - | 222 W/m² | - |
| 1778274248 | 19.44° C | 59% | 1013.5 hPa | 0 mm | - | 330 W/m² | - |
| 1778273943 | 19.44° C | 62% | 1013.7 hPa | 0 mm | - | 286 W/m² | - |
| 1778273641 | 18.89° C | 61% | 1013.5 hPa | 0 mm | - | 310 W/m² | - |
| 1778273337 | 18.89° C | 55% | 1013.8 hPa | 0 mm | - | 267 W/m² | - |
| 1778273034 | 18.89° C | 54% | 1013.8 hPa | 0 mm | - | 219 W/m² | - |
| 1778272730 | 18.89° C | 60% | 1013.8 hPa | 0 mm | - | 253 W/m² | - |
| 1778272426 | 18.89° C | 55% | 1013.8 hPa | 0 mm | - | 240 W/m² | - |
| 1778272122 | 19.44° C | 56% | 1014 hPa | 0 mm | - | 255 W/m² | - |
| 1778271820 | 19.44° C | 54% | 1013.8 hPa | 0 mm | - | 356 W/m² | - |
| 1778271517 | 19.44° C | 56% | 1014.1 hPa | 0 mm | - | 270 W/m² | - |
| 1778271214 | 19.44° C | 57% | 1014.2 hPa | 0 mm | - | 374 W/m² | - |
| 1778270910 | 19.44° C | 53% | 1014.1 hPa | 0 mm | - | 340 W/m² | - |
| 1778270607 | 20.56° C | 52% | 1014.2 hPa | 0 mm | - | 309 W/m² | - |
| 1778270303 | 20.56° C | 53% | 1013.9 hPa | 0 mm | - | 379 W/m² | - |
| 1778270000 | 20.56° C | 55% | 1014.2 hPa | 0 mm | - | 338 W/m² | - |
| 1778269696 | 20° C | 56% | 1014.2 hPa | 0 mm | - | 465 W/m² | - |
| 1778269393 | 20° C | 53% | 1014.1 hPa | 0 mm | - | 422 W/m² | - |
| 1778269090 | 20° C | 57% | 1013.9 hPa | 0 mm | - | 523 W/m² | - |
| 1778268787 | 20° C | 56% | 1014 hPa | 0 mm | - | 437 W/m² | - |
| 1778268483 | 19.44° C | 53% | 1014.1 hPa | 0 mm | - | 338 W/m² | - |
| 1778268180 | 19.44° C | 53% | 1014 hPa | 0 mm | - | 302 W/m² | - |
* Rain latest hour (hover to see other rain measurements)
** Current wind speed in m/s (hover to see current wind gust speed)